sensor_id;sensor_type;location;lat;lon;timestamp;temperature;humidity
2625;DHT22;1322;53.256;10.386;2023-07-13T00:00:24;20.60;99.90
2625;DHT22;1322;53.256;10.386;2023-07-13T00:02:50;20.60;99.90
2625;DHT22;1322;53.256;10.386;2023-07-13T00:05:19;20.60;99.90
2625;DHT22;1322;53.256;10.386;2023-07-13T00:07:45;20.50;99.90
2625;DHT22;1322;53.256;10.386;2023-07-13T00:10:12;20.40;99.90
2625;DHT22;1322;53.256;10.386;2023-07-13T00:12:37;20.40;99.90
2625;DHT22;1322;53.256;10.386;2023-07-13T00:15:09;20.30;99.90
2625;DHT22;1322;53.256;10.386;2023-07-13T00:17:36;20.30;99.90
2625;DHT22;1322;53.256;10.386;2023-07-13T00:20:04;20.20;99.90
2625;DHT22;1322;53.256;10.386;2023-07-13T00:22:30;20.10;99.90
2625;DHT22;1322;53.256;10.386;2023-07-13T00:24:56;20.10;99.90
2625;DHT22;1322;53.256;10.386;2023-07-13T00:27:22;20.00;99.90
2625;DHT22;1322;53.256;10.386;2023-07-13T00:29:48;19.90;99.90
2625;DHT22;1322;53.256;10.386;2023-07-13T00:32:14;19.80;99.90
2625;DHT22;1322;53.256;10.386;2023-07-13T00:34:40;19.80;99.90
2625;DHT22;1322;53.256;10.386;2023-07-13T00:37:06;19.70;99.90
2625;DHT22;1322;53.256;10.386;2023-07-13T00:39:33;19.70;99.90
2625;DHT22;1322;53.256;10.386;2023-07-13T00:42:00;19.60;99.90
2625;DHT22;1322;53.256;10.386;2023-07-13T00:44:26;19.60;99.90
2625;DHT22;1322;53.256;10.386;2023-07-13T00:46:52;19.50;99.90
2625;DHT22;1322;53.256;10.386;2023-07-13T00:49:20;19.50;99.90
2625;DHT22;1322;53.256;10.386;2023-07-13T00:52:03;19.50;99.90
2625;DHT22;1322;53.256;10.386;2023-07-13T00:54:37;19.40;99.90
2625;DHT22;1322;53.256;10.386;2023-07-13T00:57:06;19.40;99.90
2625;DHT22;1322;53.256;10.386;2023-07-13T00:59:34;19.30;99.90
2625;DHT22;1322;53.256;10.386;2023-07-13T01:02:00;19.20;99.90
2625;DHT22;1322;53.256;10.386;2023-07-13T01:04:26;19.20;99.90
2625;DHT22;1322;53.256;10.386;2023-07-13T01:06:52;19.20;99.90
2625;DHT22;1322;53.256;10.386;2023-07-13T01:09:19;19.10;99.90
2625;DHT22;1322;53.256;10.386;2023-07-13T01:11:46;19.00;99.90
2625;DHT22;1322;53.256;10.386;2023-07-13T01:14:12;19.00;99.90
2625;DHT22;1322;53.256;10.386;2023-07-13T01:16:39;18.90;99.90
2625;DHT22;1322;53.256;10.386;2023-07-13T01:22:02;18.90;99.90
2625;DHT22;1322;53.256;10.386;2023-07-13T01:24:28;18.90;99.90
2625;DHT22;1322;53.256;10.386;2023-07-13T01:26:54;18.80;99.90
2625;DHT22;1322;53.256;10.386;2023-07-13T01:29:20;18.70;99.90
2625;DHT22;1322;53.256;10.386;2023-07-13T01:31:46;18.70;99.90
2625;DHT22;1322;53.256;10.386;2023-07-13T01:34:12;18.70;99.90
2625;DHT22;1322;53.256;10.386;2023-07-13T01:36:38;18.60;99.90
2625;DHT22;1322;53.256;10.386;2023-07-13T01:39:04;18.60;99.90
2625;DHT22;1322;53.256;10.386;2023-07-13T01:41:29;18.60;99.90
2625;DHT22;1322;53.256;10.386;2023-07-13T01:43:55;18.60;99.90
2625;DHT22;1322;53.256;10.386;2023-07-13T01:46:21;18.50;99.90
2625;DHT22;1322;53.256;10.386;2023-07-13T01:48:46;18.50;99.90
2625;DHT22;1322;53.256;10.386;2023-07-13T01:51:12;18.50;99.90
2625;DHT22;1322;53.256;10.386;2023-07-13T01:53:38;18.50;99.90
2625;DHT22;1322;53.256;10.386;2023-07-13T01:56:04;18.40;99.90
2625;DHT22;1322;53.256;10.386;2023-07-13T01:58:30;18.40;99.90
2625;DHT22;1322;53.256;10.386;2023-07-13T02:00:55;18.40;99.90
2625;DHT22;1322;53.256;10.386;2023-07-13T02:03:21;18.40;99.90
2625;DHT22;1322;53.256;10.386;2023-07-13T02:05:46;18.30;99.90
2625;DHT22;1322;53.256;10.386;2023-07-13T02:08:12;18.30;99.90
2625;DHT22;1322;53.256;10.386;2023-07-13T02:10:38;18.30;99.90
2625;DHT22;1322;53.256;10.386;2023-07-13T02:13:07;18.20;99.90
2625;DHT22;1322;53.256;10.386;2023-07-13T02:15:33;18.20;99.90
2625;DHT22;1322;53.256;10.386;2023-07-13T02:17:58;18.10;99.90
2625;DHT22;1322;53.256;10.386;2023-07-13T02:20:25;18.10;99.90
2625;DHT22;1322;53.256;10.386;2023-07-13T02:22:52;18.10;99.90
2625;DHT22;1322;53.256;10.386;2023-07-13T02:25:17;18.10;99.90
2625;DHT22;1322;53.256;10.386;2023-07-13T02:27:43;18.10;99.90
2625;DHT22;1322;53.256;10.386;2023-07-13T02:30:09;18.10;99.90
2625;DHT22;1322;53.256;10.386;2023-07-13T02:32:36;18.10;99.90
2625;DHT22;1322;53.256;10.386;2023-07-13T02:35:01;18.10;99.90
2625;DHT22;1322;53.256;10.386;2023-07-13T02:37:27;18.00;99.90
2625;DHT22;1322;53.256;10.386;2023-07-13T02:39:53;18.00;99.90
2625;DHT22;1322;53.256;10.386;2023-07-13T02:42:19;17.90;99.90
2625;DHT22;1322;53.256;10.386;2023-07-13T02:44:45;17.90;99.90
2625;DHT22;1322;53.256;10.386;2023-07-13T02:47:11;17.90;99.90
2625;DHT22;1322;53.256;10.386;2023-07-13T02:49:36;17.90;99.90
2625;DHT22;1322;53.256;10.386;2023-07-13T02:52:02;17.90;99.90
2625;DHT22;1322;53.256;10.386;2023-07-13T02:54:28;17.80;99.90
2625;DHT22;1322;53.256;10.386;2023-07-13T02:56:53;17.80;99.90
2625;DHT22;1322;53.256;10.386;2023-07-13T02:59:19;17.80;99.90
2625;DHT22;1322;53.256;10.386;2023-07-13T03:01:45;17.80;99.90
2625;DHT22;1322;53.256;10.386;2023-07-13T03:04:10;17.80;99.90
2625;DHT22;1322;53.256;10.386;2023-07-13T03:06:37;17.80;99.90
2625;DHT22;1322;53.256;10.386;2023-07-13T03:09:03;17.80;99.90
2625;DHT22;1322;53.256;10.386;2023-07-13T03:11:29;17.70;99.90
2625;DHT22;1322;53.256;10.386;2023-07-13T03:13:56;17.70;99.90
2625;DHT22;1322;53.256;10.386;2023-07-13T03:16:22;17.70;99.90
2625;DHT22;1322;53.256;10.386;2023-07-13T03:18:48;17.70;99.90
2625;DHT22;1322;53.256;10.386;2023-07-13T03:21:14;17.70;99.90
2625;DHT22;1322;53.256;10.386;2023-07-13T03:23:39;17.70;99.90
2625;DHT22;1322;53.256;10.386;2023-07-13T03:26:10;17.70;99.90
2625;DHT22;1322;53.256;10.386;2023-07-13T03:28:36;17.70;99.90
2625;DHT22;1322;53.256;10.386;2023-07-13T03:31:08;17.70;99.90
2625;DHT22;1322;53.256;10.386;2023-07-13T03:33:34;17.70;99.90
2625;DHT22;1322;53.256;10.386;2023-07-13T03:36:00;17.70;99.90
2625;DHT22;1322;53.256;10.386;2023-07-13T03:38:25;17.80;99.90
2625;DHT22;1322;53.256;10.386;2023-07-13T03:40:52;17.80;99.90
2625;DHT22;1322;53.256;10.386;2023-07-13T03:43:18;17.80;99.90
2625;DHT22;1322;53.256;10.386;2023-07-13T03:45:43;17.80;99.90
2625;DHT22;1322;53.256;10.386;2023-07-13T03:48:09;17.90;99.90
2625;DHT22;1322;53.256;10.386;2023-07-13T03:50:35;18.00;99.90
2625;DHT22;1322;53.256;10.386;2023-07-13T03:53:01;18.10;99.90
2625;DHT22;1322;53.256;10.386;2023-07-13T03:55:26;18.10;99.90
2625;DHT22;1322;53.256;10.386;2023-07-13T04:00:50;18.20;99.90
2625;DHT22;1322;53.256;10.386;2023-07-13T04:03:15;18.20;99.90
2625;DHT22;1322;53.256;10.386;2023-07-13T04:05:41;18.30;99.90
2625;DHT22;1322;53.256;10.386;2023-07-13T04:08:07;18.50;99.90
2625;DHT22;1322;53.256;10.386;2023-07-13T04:10:33;18.60;99.90
2625;DHT22;1322;53.256;10.386;2023-07-13T04:12:58;18.80;99.90
2625;DHT22;1322;53.256;10.386;2023-07-13T04:15:24;19.00;99.90
2625;DHT22;1322;53.256;10.386;2023-07-13T04:17:49;19.20;99.90
2625;DHT22;1322;53.256;10.386;2023-07-13T04:20:15;19.30;99.90
2625;DHT22;1322;53.256;10.386;2023-07-13T04:22:41;19.60;99.90
2625;DHT22;1322;53.256;10.386;2023-07-13T04:25:07;19.70;99.90
2625;DHT22;1322;53.256;10.386;2023-07-13T04:27:32;19.90;99.90
2625;DHT22;1322;53.256;10.386;2023-07-13T04:29:58;20.10;99.90
2625;DHT22;1322;53.256;10.386;2023-07-13T04:32:24;20.30;99.90
2625;DHT22;1322;53.256;10.386;2023-07-13T04:34:49;20.40;99.90
2625;DHT22;1322;53.256;10.386;2023-07-13T04:37:18;20.50;99.90
2625;DHT22;1322;53.256;10.386;2023-07-13T04:39:44;20.60;99.90
2625;DHT22;1322;53.256;10.386;2023-07-13T04:42:09;20.70;99.90
2625;DHT22;1322;53.256;10.386;2023-07-13T04:44:35;20.70;99.90
2625;DHT22;1322;53.256;10.386;2023-07-13T04:47:01;20.70;99.90
2625;DHT22;1322;53.256;10.386;2023-07-13T04:49:26;20.50;99.90
2625;DHT22;1322;53.256;10.386;2023-07-13T04:51:52;20.40;99.90
2625;DHT22;1322;53.256;10.386;2023-07-13T04:54:17;20.30;99.90
2625;DHT22;1322;53.256;10.386;2023-07-13T04:56:43;20.20;99.90
2625;DHT22;1322;53.256;10.386;2023-07-13T04:59:08;20.10;99.90
2625;DHT22;1322;53.256;10.386;2023-07-13T05:01:34;20.10;99.90
2625;DHT22;1322;53.256;10.386;2023-07-13T05:04:00;20.00;99.90
2625;DHT22;1322;53.256;10.386;2023-07-13T05:06:26;20.10;99.90
2625;DHT22;1322;53.256;10.386;2023-07-13T05:08:51;20.30;99.90
2625;DHT22;1322;53.256;10.386;2023-07-13T05:11:18;20.70;99.90
2625;DHT22;1322;53.256;10.386;2023-07-13T05:13:43;21.00;99.90
2625;DHT22;1322;53.256;10.386;2023-07-13T05:16:09;21.40;99.90
2625;DHT22;1322;53.256;10.386;2023-07-13T05:18:35;21.80;99.90
2625;DHT22;1322;53.256;10.386;2023-07-13T05:21:04;22.00;99.90
2625;DHT22;1322;53.256;10.386;2023-07-13T05:23:31;22.30;99.90
2625;DHT22;1322;53.256;10.386;2023-07-13T05:25:57;22.50;99.90
2625;DHT22;1322;53.256;10.386;2023-07-13T05:28:22;22.60;99.90
2625;DHT22;1322;53.256;10.386;2023-07-13T05:30:49;22.70;99.90
2625;DHT22;1322;53.256;10.386;2023-07-13T05:33:16;22.90;99.90
2625;DHT22;1322;53.256;10.386;2023-07-13T05:35:42;23.10;99.90
2625;DHT22;1322;53.256;10.386;2023-07-13T05:38:07;23.00;99.90
2625;DHT22;1322;53.256;10.386;2023-07-13T05:40:33;23.10;99.90
2625;DHT22;1322;53.256;10.386;2023-07-13T05:42:59;23.00;99.90
2625;DHT22;1322;53.256;10.386;2023-07-13T05:45:24;22.90;99.90
2625;DHT22;1322;53.256;10.386;2023-07-13T05:47:55;23.00;99.90
2625;DHT22;1322;53.256;10.386;2023-07-13T05:50:21;22.80;99.90
2625;DHT22;1322;53.256;10.386;2023-07-13T05:52:47;22.80;99.90
2625;DHT22;1322;53.256;10.386;2023-07-13T05:55:12;22.90;99.90
2625;DHT22;1322;53.256;10.386;2023-07-13T05:57:38;23.10;99.90
2625;DHT22;1322;53.256;10.386;2023-07-13T06:00:05;23.20;99.90
2625;DHT22;1322;53.256;10.386;2023-07-13T06:02:31;23.50;99.90
2625;DHT22;1322;53.256;10.386;2023-07-13T06:04:57;23.50;99.90
2625;DHT22;1322;53.256;10.386;2023-07-13T06:07:22;23.60;99.90
2625;DHT22;1322;53.256;10.386;2023-07-13T06:09:48;23.60;99.90
2625;DHT22;1322;53.256;10.386;2023-07-13T06:12:13;23.80;99.90
2625;DHT22;1322;53.256;10.386;2023-07-13T06:14:39;24.00;99.90
2625;DHT22;1322;53.256;10.386;2023-07-13T06:17:05;24.20;99.90
2625;DHT22;1322;53.256;10.386;2023-07-13T06:19:31;24.20;99.90
2625;DHT22;1322;53.256;10.386;2023-07-13T06:21:57;24.30;99.90
2625;DHT22;1322;53.256;10.386;2023-07-13T06:24:24;24.30;99.90
2625;DHT22;1322;53.256;10.386;2023-07-13T06:26:49;24.50;99.90
2625;DHT22;1322;53.256;10.386;2023-07-13T06:29:15;24.70;99.90
2625;DHT22;1322;53.256;10.386;2023-07-13T06:31:41;24.90;99.90
2625;DHT22;1322;53.256;10.386;2023-07-13T06:34:06;24.80;99.90
2625;DHT22;1322;53.256;10.386;2023-07-13T06:36:32;24.90;99.90
2625;DHT22;1322;53.256;10.386;2023-07-13T06:38:57;24.80;99.90
2625;DHT22;1322;53.256;10.386;2023-07-13T06:41:23;24.70;99.90
2625;DHT22;1322;53.256;10.386;2023-07-13T06:43:51;24.70;99.90
2625;DHT22;1322;53.256;10.386;2023-07-13T06:46:17;24.80;99.90
2625;DHT22;1322;53.256;10.386;2023-07-13T06:48:43;25.00;99.90
2625;DHT22;1322;53.256;10.386;2023-07-13T06:51:09;25.10;99.90
2625;DHT22;1322;53.256;10.386;2023-07-13T06:53:34;25.00;99.90
2625;DHT22;1322;53.256;10.386;2023-07-13T06:56:00;24.80;99.90
2625;DHT22;1322;53.256;10.386;2023-07-13T06:58:25;24.70;99.90
2625;DHT22;1322;53.256;10.386;2023-07-13T07:00:52;24.70;99.90
2625;DHT22;1322;53.256;10.386;2023-07-13T07:03:18;24.50;99.90
2625;DHT22;1322;53.256;10.386;2023-07-13T07:05:44;24.50;99.90
2625;DHT22;1322;53.256;10.386;2023-07-13T07:08:10;24.70;99.90
2625;DHT22;1322;53.256;10.386;2023-07-13T07:10:36;24.80;99.90
2625;DHT22;1322;53.256;10.386;2023-07-13T07:13:02;24.90;99.90
2625;DHT22;1322;53.256;10.386;2023-07-13T07:15:28;25.00;99.90
2625;DHT22;1322;53.256;10.386;2023-07-13T07:17:53;25.10;99.90
2625;DHT22;1322;53.256;10.386;2023-07-13T07:20:19;25.20;99.90
2625;DHT22;1322;53.256;10.386;2023-07-13T07:22:46;25.00;99.90
2625;DHT22;1322;53.256;10.386;2023-07-13T07:25:12;25.10;99.90
2625;DHT22;1322;53.256;10.386;2023-07-13T07:27:38;25.00;99.90
2625;DHT22;1322;53.256;10.386;2023-07-13T07:30:04;25.00;99.90
2625;DHT22;1322;53.256;10.386;2023-07-13T07:32:31;24.80;99.90
2625;DHT22;1322;53.256;10.386;2023-07-13T07:34:57;24.80;99.90
2625;DHT22;1322;53.256;10.386;2023-07-13T07:37:23;24.80;99.90
2625;DHT22;1322;53.256;10.386;2023-07-13T07:39:49;24.80;99.90
2625;DHT22;1322;53.256;10.386;2023-07-13T07:42:15;24.70;99.90
2625;DHT22;1322;53.256;10.386;2023-07-13T07:44:41;24.60;99.90
2625;DHT22;1322;53.256;10.386;2023-07-13T07:47:08;24.50;99.90
2625;DHT22;1322;53.256;10.386;2023-07-13T07:49:35;24.30;99.90
2625;DHT22;1322;53.256;10.386;2023-07-13T07:52:01;24.50;99.90
2625;DHT22;1322;53.256;10.386;2023-07-13T07:54:26;24.60;99.90
2625;DHT22;1322;53.256;10.386;2023-07-13T07:56:52;24.40;99.90
2625;DHT22;1322;53.256;10.386;2023-07-13T07:59:18;24.20;99.90
2625;DHT22;1322;53.256;10.386;2023-07-13T08:01:44;24.10;99.90
2625;DHT22;1322;53.256;10.386;2023-07-13T08:04:11;24.20;99.90
2625;DHT22;1322;53.256;10.386;2023-07-13T08:06:37;24.40;99.90
2625;DHT22;1322;53.256;10.386;2023-07-13T08:09:03;24.70;99.90
2625;DHT22;1322;53.256;10.386;2023-07-13T08:11:30;24.70;99.90
2625;DHT22;1322;53.256;10.386;2023-07-13T08:13:55;24.60;99.90
2625;DHT22;1322;53.256;10.386;2023-07-13T08:16:22;24.50;99.90
2625;DHT22;1322;53.256;10.386;2023-07-13T08:18:48;24.20;99.90
2625;DHT22;1322;53.256;10.386;2023-07-13T08:21:14;24.20;99.90
2625;DHT22;1322;53.256;10.386;2023-07-13T08:23:39;24.60;99.90
2625;DHT22;1322;53.256;10.386;2023-07-13T08:26:05;24.90;99.90
2625;DHT22;1322;53.256;10.386;2023-07-13T08:28:31;25.10;99.90
2625;DHT22;1322;53.256;10.386;2023-07-13T08:31:05;25.50;99.90
2625;DHT22;1322;53.256;10.386;2023-07-13T08:33:33;25.70;99.90
2625;DHT22;1322;53.256;10.386;2023-07-13T08:35:59;25.70;99.90
2625;DHT22;1322;53.256;10.386;2023-07-13T08:38:25;25.40;99.90
2625;DHT22;1322;53.256;10.386;2023-07-13T08:40:55;25.20;99.90
2625;DHT22;1322;53.256;10.386;2023-07-13T08:43:35;25.30;99.90
2625;DHT22;1322;53.256;10.386;2023-07-13T08:46:20;25.10;99.90
2625;DHT22;1322;53.256;10.386;2023-07-13T08:48:48;25.10;99.90
2625;DHT22;1322;53.256;10.386;2023-07-13T08:53:49;25.30;99.90
2625;DHT22;1322;53.256;10.386;2023-07-13T08:56:19;25.30;99.90
2625;DHT22;1322;53.256;10.386;2023-07-13T08:58:50;25.20;99.90
2625;DHT22;1322;53.256;10.386;2023-07-13T09:04:32;25.40;99.90
2625;DHT22;1322;53.256;10.386;2023-07-13T09:14:57;26.60;99.90
2625;DHT22;1322;53.256;10.386;2023-07-13T09:17:27;26.50;99.90
2625;DHT22;1322;53.256;10.386;2023-07-13T09:20:01;26.40;99.90
2625;DHT22;1322;53.256;10.386;2023-07-13T09:22:32;25.90;99.90
2625;DHT22;1322;53.256;10.386;2023-07-13T09:27:43;25.60;99.90
2625;DHT22;1322;53.256;10.386;2023-07-13T09:32:48;25.50;99.90
2625;DHT22;1322;53.256;10.386;2023-07-13T09:35:19;25.50;99.90
2625;DHT22;1322;53.256;10.386;2023-07-13T09:37:46;25.50;99.90
2625;DHT22;1322;53.256;10.386;2023-07-13T09:40:26;25.70;99.90
2625;DHT22;1322;53.256;10.386;2023-07-13T09:42:53;26.00;99.90
2625;DHT22;1322;53.256;10.386;2023-07-13T09:45:32;26.10;99.90
2625;DHT22;1322;53.256;10.386;2023-07-13T09:48:06;26.00;99.90
2625;DHT22;1322;53.256;10.386;2023-07-13T09:50:33;25.90;99.90
2625;DHT22;1322;53.256;10.386;2023-07-13T09:53:01;25.70;99.90
2625;DHT22;1322;53.256;10.386;2023-07-13T09:55:32;25.40;99.90
2625;DHT22;1322;53.256;10.386;2023-07-13T09:58:05;25.00;99.90
2625;DHT22;1322;53.256;10.386;2023-07-13T10:00:35;24.50;99.90
2625;DHT22;1322;53.256;10.386;2023-07-13T10:03:14;24.30;99.90
2625;DHT22;1322;53.256;10.386;2023-07-13T10:05:44;24.10;99.90
2625;DHT22;1322;53.256;10.386;2023-07-13T10:08:26;23.90;99.90
2625;DHT22;1322;53.256;10.386;2023-07-13T10:13:43;24.00;99.90
2625;DHT22;1322;53.256;10.386;2023-07-13T10:16:10;24.20;99.90
2625;DHT22;1322;53.256;10.386;2023-07-13T10:18:46;24.30;99.90
2625;DHT22;1322;53.256;10.386;2023-07-13T10:21:20;24.60;99.90
2625;DHT22;1322;53.256;10.386;2023-07-13T10:24:10;24.70;99.90
2625;DHT22;1322;53.256;10.386;2023-07-13T10:26:41;25.00;99.90
2625;DHT22;1322;53.256;10.386;2023-07-13T10:29:13;25.10;99.90
2625;DHT22;1322;53.256;10.386;2023-07-13T10:31:40;25.30;99.90
2625;DHT22;1322;53.256;10.386;2023-07-13T10:34:10;25.50;99.90
2625;DHT22;1322;53.256;10.386;2023-07-13T10:36:42;25.70;99.90
2625;DHT22;1322;53.256;10.386;2023-07-13T10:39:20;26.00;99.90
2625;DHT22;1322;53.256;10.386;2023-07-13T10:41:51;26.50;99.90
2625;DHT22;1322;53.256;10.386;2023-07-13T10:44:22;26.80;99.90
2625;DHT22;1322;53.256;10.386;2023-07-13T10:46:53;26.90;99.90
2625;DHT22;1322;53.256;10.386;2023-07-13T10:49:20;26.90;99.90
2625;DHT22;1322;53.256;10.386;2023-07-13T10:51:46;27.00;99.90
2625;DHT22;1322;53.256;10.386;2023-07-13T10:54:32;26.90;99.90
2625;DHT22;1322;53.256;10.386;2023-07-13T10:57:17;26.90;99.90
2625;DHT22;1322;53.256;10.386;2023-07-13T10:59:49;27.10;99.90
2625;DHT22;1322;53.256;10.386;2023-07-13T11:02:34;27.30;99.90
2625;DHT22;1322;53.256;10.386;2023-07-13T11:05:18;27.30;99.90
2625;DHT22;1322;53.256;10.386;2023-07-13T11:08:12;27.30;99.90
2625;DHT22;1322;53.256;10.386;2023-07-13T11:10:55;27.30;99.90
2625;DHT22;1322;53.256;10.386;2023-07-13T11:14:25;27.20;99.90
2625;DHT22;1322;53.256;10.386;2023-07-13T11:16:44;27.20;99.90
2625;DHT22;1322;53.256;10.386;2023-07-13T11:24:57;27.20;99.90
2625;DHT22;1322;53.256;10.386;2023-07-13T11:27:45;27.10;99.90
2625;DHT22;1322;53.256;10.386;2023-07-13T11:38:40;27.50;99.90
2625;DHT22;1322;53.256;10.386;2023-07-13T11:43:39;27.60;99.90
2625;DHT22;1322;53.256;10.386;2023-07-13T11:46:15;27.60;99.90
2625;DHT22;1322;53.256;10.386;2023-07-13T11:48:42;27.60;99.90
2625;DHT22;1322;53.256;10.386;2023-07-13T11:51:35;27.70;99.90
2625;DHT22;1322;53.256;10.386;2023-07-13T11:54:04;27.90;99.90
2625;DHT22;1322;53.256;10.386;2023-07-13T11:56:30;27.80;99.90
2625;DHT22;1322;53.256;10.386;2023-07-13T11:58:59;27.80;99.90
2625;DHT22;1322;53.256;10.386;2023-07-13T12:01:31;27.50;99.90
2625;DHT22;1322;53.256;10.386;2023-07-13T12:04:01;27.30;99.90
2625;DHT22;1322;53.256;10.386;2023-07-13T12:06:33;27.30;99.90
2625;DHT22;1322;53.256;10.386;2023-07-13T12:09:01;27.40;99.90
2625;DHT22;1322;53.256;10.386;2023-07-13T12:11:29;27.50;99.90
2625;DHT22;1322;53.256;10.386;2023-07-13T12:13:55;27.00;99.90
2625;DHT22;1322;53.256;10.386;2023-07-13T12:16:28;26.80;99.90
2625;DHT22;1322;53.256;10.386;2023-07-13T12:18:56;26.70;99.90
2625;DHT22;1322;53.256;10.386;2023-07-13T12:21:38;26.70;99.90
2625;DHT22;1322;53.256;10.386;2023-07-13T12:24:04;26.70;99.90
2625;DHT22;1322;53.256;10.386;2023-07-13T12:26:38;26.70;99.90
2625;DHT22;1322;53.256;10.386;2023-07-13T12:29:06;26.70;99.90
2625;DHT22;1322;53.256;10.386;2023-07-13T12:31:39;26.50;99.90
2625;DHT22;1322;53.256;10.386;2023-07-13T12:34:14;26.20;99.90
2625;DHT22;1322;53.256;10.386;2023-07-13T12:36:51;26.00;99.90
2625;DHT22;1322;53.256;10.386;2023-07-13T12:41:47;25.60;99.90
2625;DHT22;1322;53.256;10.386;2023-07-13T12:44:24;25.70;99.90
2625;DHT22;1322;53.256;10.386;2023-07-13T12:47:02;25.70;99.90
2625;DHT22;1322;53.256;10.386;2023-07-13T12:49:31;25.50;99.90
2625;DHT22;1322;53.256;10.386;2023-07-13T12:52:02;25.40;99.90
2625;DHT22;1322;53.256;10.386;2023-07-13T12:54:29;25.30;99.90
2625;DHT22;1322;53.256;10.386;2023-07-13T12:56:57;25.20;99.90
2625;DHT22;1322;53.256;10.386;2023-07-13T12:59:26;25.00;99.90
2625;DHT22;1322;53.256;10.386;2023-07-13T13:01:54;24.80;99.90
2625;DHT22;1322;53.256;10.386;2023-07-13T13:04:20;23.90;99.90
2625;DHT22;1322;53.256;10.386;2023-07-13T13:06:47;22.40;99.90
2625;DHT22;1322;53.256;10.386;2023-07-13T13:09:16;21.00;99.90
2625;DHT22;1322;53.256;10.386;2023-07-13T13:11:42;20.10;99.90
2625;DHT22;1322;53.256;10.386;2023-07-13T13:14:08;19.50;99.90
2625;DHT22;1322;53.256;10.386;2023-07-13T13:16:40;19.20;99.90
2625;DHT22;1322;53.256;10.386;2023-07-13T13:19:20;19.00;99.90
2625;DHT22;1322;53.256;10.386;2023-07-13T13:21:47;18.90;99.90
2625;DHT22;1322;53.256;10.386;2023-07-13T13:24:19;19.00;99.90
2625;DHT22;1322;53.256;10.386;2023-07-13T13:26:46;19.00;99.90
2625;DHT22;1322;53.256;10.386;2023-07-13T13:29:23;19.30;99.90
2625;DHT22;1322;53.256;10.386;2023-07-13T13:31:53;19.50;99.90
2625;DHT22;1322;53.256;10.386;2023-07-13T13:34:19;19.80;99.90
2625;DHT22;1322;53.256;10.386;2023-07-13T13:36:46;20.20;99.90
2625;DHT22;1322;53.256;10.386;2023-07-13T13:41:45;20.60;99.90
2625;DHT22;1322;53.256;10.386;2023-07-13T13:44:14;20.60;99.90
2625;DHT22;1322;53.256;10.386;2023-07-13T13:46:40;20.70;99.90
2625;DHT22;1322;53.256;10.386;2023-07-13T13:49:16;20.90;99.90
2625;DHT22;1322;53.256;10.386;2023-07-13T13:51:43;21.10;99.90
2625;DHT22;1322;53.256;10.386;2023-07-13T13:54:14;21.30;99.90
2625;DHT22;1322;53.256;10.386;2023-07-13T13:56:46;21.40;99.90
2625;DHT22;1322;53.256;10.386;2023-07-13T13:59:12;21.30;99.90
2625;DHT22;1322;53.256;10.386;2023-07-13T14:01:38;21.30;99.90
2625;DHT22;1322;53.256;10.386;2023-07-13T14:04:06;21.20;99.90
2625;DHT22;1322;53.256;10.386;2023-07-13T14:06:33;21.30;99.90
2625;DHT22;1322;53.256;10.386;2023-07-13T14:09:00;21.20;99.90
2625;DHT22;1322;53.256;10.386;2023-07-13T14:11:26;21.30;99.90
2625;DHT22;1322;53.256;10.386;2023-07-13T14:13:58;21.40;99.90
2625;DHT22;1322;53.256;10.386;2023-07-13T14:16:28;21.50;99.90
2625;DHT22;1322;53.256;10.386;2023-07-13T14:18:55;21.60;99.90
2625;DHT22;1322;53.256;10.386;2023-07-13T14:21:24;21.60;99.90
2625;DHT22;1322;53.256;10.386;2023-07-13T14:23:50;21.70;99.90
2625;DHT22;1322;53.256;10.386;2023-07-13T14:26:21;21.80;99.90
2625;DHT22;1322;53.256;10.386;2023-07-13T14:28:49;22.00;99.90
2625;DHT22;1322;53.256;10.386;2023-07-13T14:31:16;22.10;99.90
2625;DHT22;1322;53.256;10.386;2023-07-13T14:33:42;22.10;99.90
2625;DHT22;1322;53.256;10.386;2023-07-13T14:38:46;21.90;99.90
2625;DHT22;1322;53.256;10.386;2023-07-13T14:41:12;21.90;99.90
2625;DHT22;1322;53.256;10.386;2023-07-13T14:43:37;21.90;99.90
2625;DHT22;1322;53.256;10.386;2023-07-13T14:46:03;21.90;99.90
2625;DHT22;1322;53.256;10.386;2023-07-13T14:48:30;22.00;99.90
2625;DHT22;1322;53.256;10.386;2023-07-13T14:50:57;22.20;99.90
2625;DHT22;1322;53.256;10.386;2023-07-13T14:53:25;22.40;99.90
2625;DHT22;1322;53.256;10.386;2023-07-13T14:55:53;22.50;99.90
2625;DHT22;1322;53.256;10.386;2023-07-13T14:58:19;22.60;99.90
2625;DHT22;1322;53.256;10.386;2023-07-13T15:00:45;22.60;99.90
2625;DHT22;1322;53.256;10.386;2023-07-13T15:03:20;22.70;99.90
2625;DHT22;1322;53.256;10.386;2023-07-13T15:05:50;22.80;99.90
2625;DHT22;1322;53.256;10.386;2023-07-13T15:08:16;22.90;99.90
2625;DHT22;1322;53.256;10.386;2023-07-13T15:10:42;22.90;99.90
2625;DHT22;1322;53.256;10.386;2023-07-13T15:13:18;22.80;99.90
2625;DHT22;1322;53.256;10.386;2023-07-13T15:15:46;22.90;99.90
2625;DHT22;1322;53.256;10.386;2023-07-13T15:18:14;23.10;99.90
2625;DHT22;1322;53.256;10.386;2023-07-13T15:20:40;23.20;99.90
2625;DHT22;1322;53.256;10.386;2023-07-13T15:23:06;23.30;99.90
2625;DHT22;1322;53.256;10.386;2023-07-13T16:12:45;22.50;99.90
2625;DHT22;1322;53.256;10.386;2023-07-13T16:15:19;22.10;99.90
2625;DHT22;1322;53.256;10.386;2023-07-13T16:17:46;22.00;99.90
2625;DHT22;1322;53.256;10.386;2023-07-13T16:20:13;21.90;99.90
2625;DHT22;1322;53.256;10.386;2023-07-13T16:22:40;21.90;99.90
2625;DHT22;1322;53.256;10.386;2023-07-13T16:25:18;22.00;99.90
2625;DHT22;1322;53.256;10.386;2023-07-13T16:27:48;21.90;99.90
2625;DHT22;1322;53.256;10.386;2023-07-13T16:30:17;21.80;99.90
2625;DHT22;1322;53.256;10.386;2023-07-13T16:32:52;21.80;99.90
2625;DHT22;1322;53.256;10.386;2023-07-13T16:35:23;21.80;99.90
2625;DHT22;1322;53.256;10.386;2023-07-13T16:37:50;21.90;99.90
2625;DHT22;1322;53.256;10.386;2023-07-13T16:40:20;22.00;99.90
2625;DHT22;1322;53.256;10.386;2023-07-13T16:42:53;21.90;99.90
2625;DHT22;1322;53.256;10.386;2023-07-13T16:45:20;21.90;99.90
2625;DHT22;1322;53.256;10.386;2023-07-13T16:47:47;21.90;99.90
2625;DHT22;1322;53.256;10.386;2023-07-13T16:50:18;21.90;99.90
2625;DHT22;1322;53.256;10.386;2023-07-13T16:52:44;21.90;99.90
2625;DHT22;1322;53.256;10.386;2023-07-13T16:55:12;21.80;99.90
2625;DHT22;1322;53.256;10.386;2023-07-13T16:57:41;21.70;99.90
2625;DHT22;1322;53.256;10.386;2023-07-13T17:00:26;21.80;99.90
2625;DHT22;1322;53.256;10.386;2023-07-13T17:03:00;21.80;99.90
2625;DHT22;1322;53.256;10.386;2023-07-13T17:05:37;21.80;99.90
2625;DHT22;1322;53.256;10.386;2023-07-13T17:08:20;21.70;99.90
2625;DHT22;1322;53.256;10.386;2023-07-13T17:10:56;21.70;99.90
2625;DHT22;1322;53.256;10.386;2023-07-13T17:13:23;21.60;99.90
2625;DHT22;1322;53.256;10.386;2023-07-13T17:15:51;21.60;99.90
2625;DHT22;1322;53.256;10.386;2023-07-13T17:18:25;21.70;99.90
2625;DHT22;1322;53.256;10.386;2023-07-13T17:20:51;21.80;99.90
2625;DHT22;1322;53.256;10.386;2023-07-13T17:23:25;22.00;99.90
2625;DHT22;1322;53.256;10.386;2023-07-13T17:25:52;22.00;99.90
2625;DHT22;1322;53.256;10.386;2023-07-13T17:28:19;22.00;99.90
2625;DHT22;1322;53.256;10.386;2023-07-13T17:30:47;21.90;99.90